createdAt,value
2019-03-05T00:09:01.901Z,75.15
2019-03-05T00:19:01.942Z,83.40
2019-03-05T00:29:01.905Z,87.35
2019-03-05T00:39:02.010Z,87.58
2019-03-05T00:49:01.918Z,87.12
2019-03-05T00:59:02.009Z,86.39
2019-03-05T01:09:01.845Z,85.62
2019-03-05T01:19:01.825Z,84.89
2019-03-05T01:29:02.489Z,85.29
2019-03-05T01:39:01.800Z,85.08
2019-03-05T01:49:01.809Z,85.23
2019-03-05T01:59:01.833Z,85.26
2019-03-05T02:09:02.415Z,84.77
2019-03-05T02:19:01.816Z,84.29
2019-03-05T02:29:01.932Z,83.52
2019-03-05T02:39:01.789Z,83.13
2019-03-05T02:49:01.819Z,83.66
2019-03-05T02:59:01.858Z,82.37
2019-03-05T03:09:01.756Z,81.68
2019-03-05T03:19:01.742Z,81.55
2019-03-05T03:29:01.758Z,80.86
2019-03-05T03:39:01.767Z,81.05
2019-03-05T03:49:01.845Z,80.84
2019-03-05T03:59:03.030Z,81.03
2019-03-05T04:09:01.767Z,81.12
2019-03-05T04:19:01.762Z,81.02
2019-03-05T04:29:01.808Z,84.16
2019-03-05T04:39:02.780Z,87.25
2019-03-05T04:49:01.961Z,88.65
2019-03-05T04:59:01.735Z,89.48
2019-03-05T05:09:04.451Z,90.04
2019-03-05T05:19:01.727Z,90.56
2019-03-05T05:29:01.689Z,90.04
2019-03-05T05:39:01.689Z,91.55
2019-03-05T05:49:01.615Z,93.14
2019-03-05T05:59:02.440Z,94.19
2019-03-05T06:09:01.717Z,95.11
2019-03-05T06:19:01.720Z,95.57
2019-03-05T06:29:02.951Z,96.58
2019-03-05T06:39:01.702Z,96.19
2019-03-05T06:49:03.151Z,96.42
2019-03-05T06:59:01.717Z,97.25
2019-03-05T07:09:01.680Z,96.91
2019-03-05T07:19:05.479Z,96.41
2019-03-05T07:29:02.549Z,95.73
2019-03-05T07:39:01.654Z,94.66
2019-03-05T07:49:01.728Z,93.88
2019-03-05T07:59:01.742Z,93.86
2019-03-05T08:09:02.398Z,92.88
2019-03-05T08:19:01.767Z,93.96
2019-03-05T08:29:02.947Z,93.11
2019-03-05T08:39:02.642Z,92.09
2019-03-05T08:49:01.796Z,91.66
2019-03-05T08:59:02.672Z,91.21
2019-03-05T09:09:02.737Z,91.91
2019-03-05T09:19:01.685Z,91.24
2019-03-05T09:29:02.738Z,90.98
2019-03-05T09:39:04.555Z,91.39
2019-03-05T09:49:01.721Z,89.92
2019-03-05T09:59:02.399Z,89.40
2019-03-05T10:09:01.841Z,88.57
2019-03-05T10:19:02.422Z,87.44
2019-03-05T10:39:08.027Z,87.57
2019-03-05T10:49:07.255Z,86.43
2019-03-05T10:59:07.116Z,84.64
2019-03-05T11:09:07.163Z,83.27
2019-03-05T11:19:08.966Z,81.87
2019-03-05T11:29:07.121Z,84.71
2019-03-05T11:39:08.997Z,84.42
2019-03-05T11:49:07.135Z,84.95
2019-03-05T11:59:07.623Z,83.44
2019-03-05T12:09:07.256Z,82.94
2019-03-05T12:19:08.590Z,81.61
2019-03-05T12:29:07.101Z,73.99
2019-03-05T12:39:07.164Z,69.57
2019-03-05T12:49:07.179Z,65.29
2019-03-05T12:59:07.229Z,63.41
2019-03-05T13:09:07.238Z,60.38
2019-03-05T13:19:09.602Z,62.61
2019-03-05T13:29:08.211Z,62.86
2019-03-05T13:39:07.557Z,63.12
2019-03-05T13:49:08.282Z,61.74
2019-03-05T13:59:07.096Z,62.62
2019-03-05T14:09:08.993Z,62.12
2019-03-05T14:19:07.498Z,62.18
2019-03-05T14:29:07.508Z,62.13
2019-03-05T14:39:07.240Z,56.69
2019-03-05T14:49:07.116Z,54.78
2019-03-05T14:59:07.956Z,55.94
2019-03-05T15:09:15.389Z,58.25
2019-03-05T15:39:08.464Z,55.77
2019-03-05T15:49:08.334Z,53.82
2019-03-05T15:59:08.432Z,55.87
2019-03-05T16:09:09.448Z,58.95
2019-03-05T16:19:12.455Z,61.14
2019-03-05T16:29:08.428Z,62.64
2019-03-05T16:39:10.413Z,65.00
2019-03-05T16:49:08.495Z,66.51
2019-03-05T16:59:08.959Z,66.74
2019-03-05T17:09:08.442Z,65.95
2019-03-05T17:19:08.319Z,67.32
2019-03-05T17:29:08.372Z,68.31
2019-03-05T17:39:08.406Z,68.96
2019-03-05T17:49:08.431Z,69.46
2019-03-05T17:59:08.409Z,70.26
2019-03-05T18:09:08.431Z,70.92
2019-03-05T18:19:08.390Z,72.64
2019-03-05T18:29:08.389Z,74.35
2019-03-05T18:39:08.405Z,75.13
2019-03-05T18:49:08.391Z,76.22
2019-03-05T18:59:08.338Z,76.68
2019-03-05T19:09:09.243Z,76.38
2019-03-05T19:19:08.450Z,78.04
2019-03-05T19:29:08.473Z,78.29
2019-03-05T19:39:08.337Z,79.44
2019-03-05T19:49:08.413Z,79.31
2019-03-05T19:59:09.430Z,79.28
2019-03-05T20:09:08.425Z,79.36
2019-03-05T20:19:08.375Z,79.76
2019-03-05T20:29:09.216Z,79.73
2019-03-05T20:39:08.362Z,79.86
2019-03-05T20:49:08.406Z,80.61
2019-03-05T20:59:08.329Z,81.57
2019-03-05T21:09:08.367Z,81.43
2019-03-05T21:19:08.483Z,81.82
2019-03-05T21:29:08.367Z,81.87
2019-03-05T21:39:08.363Z,82.37
2019-03-05T21:49:08.374Z,82.85
2019-03-05T21:59:08.288Z,82.77
2019-03-05T22:09:08.278Z,83.48
2019-03-05T22:19:08.285Z,82.87
2019-03-05T22:29:08.350Z,82.10
2019-03-05T22:39:08.286Z,82.48
2019-03-05T22:49:08.407Z,82.69
2019-03-05T22:59:08.376Z,83.33
2019-03-05T23:09:13.675Z,84.22
2019-03-05T23:19:08.323Z,84.53
2019-03-05T23:29:08.340Z,85.06
2019-03-05T23:39:08.432Z,85.46
2019-03-05T23:49:08.355Z,84.95
2019-03-05T23:59:08.326Z,85.42
